createdAt,value
2022-11-05T00:05:51.084Z,16.27
2022-11-05T00:16:35.248Z,14.95
2022-11-05T00:26:57.002Z,14.07
2022-11-05T00:37:24.139Z,15.43
2022-11-05T00:48:04.328Z,12.00
2022-11-05T00:58:31.364Z,10.35
2022-11-05T01:08:54.019Z,7.85
2022-11-05T01:19:19.313Z,9.65
2022-11-05T01:29:42.712Z,9.20
2022-11-05T01:40:10.116Z,7.97
2022-11-05T01:50:37.023Z,9.45
2022-11-05T02:01:13.021Z,8.25
2022-11-05T02:11:40.737Z,8.70
2022-11-05T02:22:39.570Z,9.95
2022-11-05T02:33:24.424Z,10.85
2022-11-05T02:43:54.984Z,11.43
2022-11-05T02:54:26.676Z,10.75
2022-11-05T03:05:02.214Z,13.20
2022-11-05T03:15:44.469Z,12.53
2022-11-05T03:26:13.286Z,12.48
2022-11-05T03:36:42.812Z,11.07
2022-11-05T03:47:12.881Z,12.30
2022-11-05T03:57:40.465Z,11.07
2022-11-05T04:08:19.273Z,8.68
2022-11-05T04:18:43.246Z,10.73
2022-11-05T04:29:22.935Z,9.50
2022-11-05T04:39:46.124Z,8.73
2022-11-05T04:50:09.460Z,10.07
2022-11-05T05:00:32.845Z,9.35
2022-11-05T05:10:54.763Z,10.75
2022-11-05T05:21:36.736Z,8.52
2022-11-05T05:31:58.367Z,8.18
2022-11-05T05:42:21.402Z,8.98
2022-11-05T05:52:43.028Z,10.23
2022-11-05T06:03:06.487Z,11.57
2022-11-05T06:13:28.711Z,9.18
2022-11-05T06:23:51.678Z,9.95
2022-11-05T06:34:13.486Z,10.32
2022-11-05T06:44:37.023Z,9.07
2022-11-05T06:54:58.939Z,8.07
2022-11-05T07:05:21.764Z,7.40
2022-11-05T07:15:43.313Z,7.47
2022-11-05T07:26:06.401Z,6.80
2022-11-05T07:36:27.689Z,9.95
2022-11-05T07:46:51.396Z,7.93
2022-11-05T07:57:12.912Z,10.75
2022-11-05T08:07:36.092Z,8.25
2022-11-05T08:18:00.742Z,10.85
2022-11-05T08:28:25.030Z,9.85
2022-11-05T08:38:46.849Z,8.82
2022-11-05T08:49:09.808Z,8.68
2022-11-05T08:59:31.539Z,9.73
2022-11-05T09:09:54.330Z,10.63
2022-11-05T09:20:16.177Z,8.25
2022-11-05T09:30:42.583Z,6.80
2022-11-05T09:41:07.350Z,8.00
2022-11-05T09:51:30.155Z,7.82
2022-11-05T10:01:53.245Z,6.20
2022-11-05T10:12:22.098Z,4.80
2022-11-05T10:22:49.191Z,3.67
2022-11-05T10:33:16.211Z,3.67
2022-11-05T10:43:43.944Z,2.53
2022-11-05T10:54:15.149Z,4.00
2022-11-05T11:04:38.199Z,3.30
2022-11-05T11:15:14.723Z,2.60
2022-11-05T11:25:42.442Z,2.17
2022-11-05T11:36:06.680Z,2.90
2022-11-05T11:46:33.789Z,2.95
2022-11-05T11:56:56.876Z,1.90
2022-11-05T12:07:30.439Z,1.88
2022-11-05T12:17:59.207Z,2.20
2022-11-05T12:28:39.107Z,1.90
2022-11-05T12:39:42.596Z,2.55
2022-11-05T12:50:16.294Z,2.30
2022-11-05T13:00:43.069Z,2.30
2022-11-05T13:11:15.641Z,2.20
2022-11-05T13:21:40.055Z,2.50
2022-11-05T13:32:09.299Z,2.17
2022-11-05T13:42:55.566Z,2.70
2022-11-05T13:53:42.657Z,2.17
2022-11-05T14:04:06.915Z,2.70
2022-11-05T14:14:31.456Z,2.70
2022-11-05T14:24:54.643Z,5.00
2022-11-05T14:35:36.616Z,3.20
2022-11-05T14:46:01.597Z,3.78
2022-11-05T14:56:23.696Z,3.60
2022-11-05T15:07:14.156Z,3.15
2022-11-05T15:17:45.850Z,7.70
2022-11-05T15:28:16.747Z,3.67
2022-11-05T15:38:38.228Z,6.68
2022-11-05T15:49:04.975Z,4.68
2022-11-05T15:59:28.539Z,18.38
2022-11-05T16:09:56.968Z,35.55
2022-11-05T16:20:28.376Z,13.50
2022-11-05T16:30:56.895Z,10.57
2022-11-05T16:41:20.186Z,25.17
2022-11-05T16:51:43.846Z,14.02
2022-11-05T17:02:05.430Z,13.05
2022-11-05T17:12:28.461Z,12.20
2022-11-05T17:22:49.910Z,25.33
2022-11-05T17:33:13.416Z,15.90
2022-11-05T17:43:35.366Z,23.38
2022-11-05T17:53:58.512Z,16.02
2022-11-05T18:04:19.935Z,18.35
2022-11-05T18:14:42.890Z,14.82
2022-11-05T18:25:05.649Z,10.98
2022-11-05T18:35:34.352Z,12.00
2022-11-05T18:46:43.200Z,12.95
2022-11-05T18:57:31.338Z,13.55
2022-11-05T19:08:15.278Z,14.27
2022-11-05T19:18:43.658Z,15.93
2022-11-05T19:29:24.504Z,14.88
2022-11-05T19:39:56.729Z,11.18
2022-11-05T19:50:40.525Z,13.43
2022-11-05T20:01:16.766Z,11.50
2022-11-05T20:11:57.827Z,11.38
2022-11-05T20:22:27.276Z,11.43
2022-11-05T20:33:13.296Z,11.52
2022-11-05T20:43:52.617Z,10.98
2022-11-05T20:54:44.076Z,9.63
